sensor_id;sensor_type;location;lat;lon;timestamp;P1;durP1;ratioP1;P2;durP2;ratioP2
27257;SDS011;62045;49.986;8.672;2022-09-14T00:04:08;3.40;;;2.10;;
27257;SDS011;62045;49.986;8.672;2022-09-14T00:09:14;3.30;;;2.10;;
27257;SDS011;62045;49.986;8.672;2022-09-14T00:14:15;3.67;;;2.45;;
27257;SDS011;62045;49.986;8.672;2022-09-14T00:19:18;2.72;;;1.77;;
27257;SDS011;62045;49.986;8.672;2022-09-14T00:24:23;3.13;;;1.92;;
27257;SDS011;62045;49.986;8.672;2022-09-14T00:29:26;2.85;;;2.10;;
27257;SDS011;62045;49.986;8.672;2022-09-14T00:34:26;3.20;;;1.92;;
27257;SDS011;62045;49.986;8.672;2022-09-14T00:39:29;2.60;;;1.60;;
27257;SDS011;62045;49.986;8.672;2022-09-14T00:50:00;2.28;;;1.60;;
27257;SDS011;62045;49.986;8.672;2022-09-14T00:55:05;3.10;;;2.10;;
27257;SDS011;62045;49.986;8.672;2022-09-14T01:00:09;2.80;;;1.85;;
27257;SDS011;62045;49.986;8.672;2022-09-14T01:05:11;2.47;;;1.52;;
27257;SDS011;62045;49.986;8.672;2022-09-14T01:10:17;3.03;;;1.70;;
27257;SDS011;62045;49.986;8.672;2022-09-14T01:15:38;3.45;;;2.10;;
27257;SDS011;62045;49.986;8.672;2022-09-14T01:20:46;3.00;;;1.90;;
27257;SDS011;62045;49.986;8.672;2022-09-14T01:25:59;2.70;;;1.83;;
27257;SDS011;62045;49.986;8.672;2022-09-14T01:31:17;3.17;;;1.85;;
27257;SDS011;62045;49.986;8.672;2022-09-14T01:36:22;2.90;;;1.88;;
27257;SDS011;62045;49.986;8.672;2022-09-14T01:41:26;2.50;;;1.65;;
27257;SDS011;62045;49.986;8.672;2022-09-14T01:46:32;2.80;;;1.83;;
27257;SDS011;62045;49.986;8.672;2022-09-14T01:51:38;2.85;;;1.63;;
27257;SDS011;62045;49.986;8.672;2022-09-14T01:56:48;2.85;;;1.88;;
27257;SDS011;62045;49.986;8.672;2022-09-14T02:01:55;2.42;;;1.70;;
27257;SDS011;62045;49.986;8.672;2022-09-14T02:07:00;4.38;;;1.95;;
27257;SDS011;62045;49.986;8.672;2022-09-14T02:12:01;2.53;;;1.75;;
27257;SDS011;62045;49.986;8.672;2022-09-14T02:17:04;2.53;;;1.58;;
27257;SDS011;62045;49.986;8.672;2022-09-14T02:22:05;2.63;;;1.70;;
27257;SDS011;62045;49.986;8.672;2022-09-14T02:27:06;2.92;;;1.63;;
27257;SDS011;62045;49.986;8.672;2022-09-14T02:32:11;2.72;;;1.73;;
27257;SDS011;62045;49.986;8.672;2022-09-14T02:37:21;2.85;;;1.77;;
27257;SDS011;62045;49.986;8.672;2022-09-14T02:42:31;2.10;;;1.50;;
27257;SDS011;62045;49.986;8.672;2022-09-14T02:47:41;3.20;;;1.77;;
27257;SDS011;62045;49.986;8.672;2022-09-14T02:52:50;2.95;;;1.80;;
27257;SDS011;62045;49.986;8.672;2022-09-14T02:57:58;2.35;;;1.73;;
27257;SDS011;62045;49.986;8.672;2022-09-14T03:03:01;2.75;;;1.73;;
27257;SDS011;62045;49.986;8.672;2022-09-14T03:08:03;2.55;;;1.60;;
27257;SDS011;62045;49.986;8.672;2022-09-14T03:13:04;3.05;;;1.75;;
27257;SDS011;62045;49.986;8.672;2022-09-14T03:18:07;2.55;;;1.52;;
27257;SDS011;62045;49.986;8.672;2022-09-14T03:23:08;2.95;;;1.92;;
27257;SDS011;62045;49.986;8.672;2022-09-14T03:28:10;2.88;;;1.60;;
27257;SDS011;62045;49.986;8.672;2022-09-14T03:33:13;2.63;;;1.83;;
27257;SDS011;62045;49.986;8.672;2022-09-14T03:38:14;3.03;;;1.65;;
27257;SDS011;62045;49.986;8.672;2022-09-14T03:43:14;3.35;;;2.03;;
27257;SDS011;62045;49.986;8.672;2022-09-14T03:48:17;2.97;;;1.55;;
27257;SDS011;62045;49.986;8.672;2022-09-14T03:53:17;3.20;;;1.70;;
27257;SDS011;62045;49.986;8.672;2022-09-14T03:58:18;3.00;;;1.40;;
27257;SDS011;62045;49.986;8.672;2022-09-14T04:03:20;2.85;;;1.52;;
27257;SDS011;62045;49.986;8.672;2022-09-14T04:08:21;3.00;;;1.70;;
27257;SDS011;62045;49.986;8.672;2022-09-14T04:13:22;2.88;;;1.48;;
27257;SDS011;62045;49.986;8.672;2022-09-14T04:18:25;2.33;;;1.50;;
27257;SDS011;62045;49.986;8.672;2022-09-14T04:23:26;1.98;;;1.40;;
27257;SDS011;62045;49.986;8.672;2022-09-14T04:28:28;2.35;;;1.40;;
27257;SDS011;62045;49.986;8.672;2022-09-14T04:33:30;2.45;;;1.40;;
27257;SDS011;62045;49.986;8.672;2022-09-14T04:38:33;2.15;;;1.48;;
27257;SDS011;62045;49.986;8.672;2022-09-14T04:43:35;2.15;;;1.40;;
27257;SDS011;62045;49.986;8.672;2022-09-14T04:48:37;2.75;;;1.58;;
27257;SDS011;62045;49.986;8.672;2022-09-14T04:53:38;2.22;;;1.30;;
27257;SDS011;62045;49.986;8.672;2022-09-14T04:58:40;2.88;;;1.55;;
27257;SDS011;62045;49.986;8.672;2022-09-14T05:03:44;2.95;;;1.33;;
27257;SDS011;62045;49.986;8.672;2022-09-14T05:08:45;2.22;;;1.40;;
27257;SDS011;62045;49.986;8.672;2022-09-14T05:13:47;2.50;;;1.48;;
27257;SDS011;62045;49.986;8.672;2022-09-14T05:18:50;1.90;;;1.17;;
27257;SDS011;62045;49.986;8.672;2022-09-14T05:23:53;2.00;;;1.27;;
27257;SDS011;62045;49.986;8.672;2022-09-14T05:28:56;2.53;;;1.30;;
27257;SDS011;62045;49.986;8.672;2022-09-14T05:34:00;2.35;;;1.50;;
27257;SDS011;62045;49.986;8.672;2022-09-14T05:39:01;2.17;;;1.45;;
27257;SDS011;62045;49.986;8.672;2022-09-14T05:44:02;3.55;;;1.40;;
27257;SDS011;62045;49.986;8.672;2022-09-14T05:49:05;1.88;;;1.25;;
27257;SDS011;62045;49.986;8.672;2022-09-14T05:54:06;1.92;;;1.23;;
27257;SDS011;62045;49.986;8.672;2022-09-14T05:59:07;2.03;;;1.25;;
27257;SDS011;62045;49.986;8.672;2022-09-14T06:04:09;2.85;;;1.23;;
27257;SDS011;62045;49.986;8.672;2022-09-14T06:09:17;2.25;;;1.35;;
27257;SDS011;62045;49.986;8.672;2022-09-14T06:14:18;2.17;;;1.30;;
27257;SDS011;62045;49.986;8.672;2022-09-14T06:19:20;2.30;;;1.45;;
27257;SDS011;62045;49.986;8.672;2022-09-14T06:24:21;2.03;;;1.25;;
27257;SDS011;62045;49.986;8.672;2022-09-14T06:29:22;2.00;;;1.20;;
27257;SDS011;62045;49.986;8.672;2022-09-14T06:34:24;2.33;;;1.20;;
27257;SDS011;62045;49.986;8.672;2022-09-14T06:39:25;2.80;;;1.48;;
27257;SDS011;62045;49.986;8.672;2022-09-14T06:44:26;2.65;;;1.30;;
27257;SDS011;62045;49.986;8.672;2022-09-14T06:49:28;1.92;;;1.20;;
27257;SDS011;62045;49.986;8.672;2022-09-14T06:54:29;1.67;;;1.13;;
27257;SDS011;62045;49.986;8.672;2022-09-14T06:59:30;2.03;;;1.23;;
27257;SDS011;62045;49.986;8.672;2022-09-14T07:04:32;1.80;;;1.10;;
27257;SDS011;62045;49.986;8.672;2022-09-14T07:09:35;2.83;;;1.20;;
27257;SDS011;62045;49.986;8.672;2022-09-14T07:14:36;3.38;;;1.30;;
27257;SDS011;62045;49.986;8.672;2022-09-14T07:19:38;1.77;;;1.00;;
27257;SDS011;62045;49.986;8.672;2022-09-14T07:24:39;2.50;;;1.35;;
27257;SDS011;62045;49.986;8.672;2022-09-14T07:29:40;2.08;;;1.10;;
27257;SDS011;62045;49.986;8.672;2022-09-14T07:34:42;3.13;;;1.20;;
27257;SDS011;62045;49.986;8.672;2022-09-14T07:39:43;1.98;;;1.20;;
27257;SDS011;62045;49.986;8.672;2022-09-14T07:44:44;3.00;;;1.45;;
27257;SDS011;62045;49.986;8.672;2022-09-14T07:49:46;2.83;;;1.45;;
27257;SDS011;62045;49.986;8.672;2022-09-14T07:54:47;2.58;;;1.40;;
27257;SDS011;62045;49.986;8.672;2022-09-14T07:59:48;2.75;;;1.30;;
27257;SDS011;62045;49.986;8.672;2022-09-14T08:04:50;2.10;;;1.08;;
27257;SDS011;62045;49.986;8.672;2022-09-14T08:09:51;2.58;;;1.25;;
27257;SDS011;62045;49.986;8.672;2022-09-14T08:14:51;3.35;;;1.23;;
27257;SDS011;62045;49.986;8.672;2022-09-14T08:19:53;2.42;;;1.17;;
27257;SDS011;62045;49.986;8.672;2022-09-14T08:24:54;28.52;;;5.70;;
27257;SDS011;62045;49.986;8.672;2022-09-14T08:29:55;56.30;;;12.27;;
27257;SDS011;62045;49.986;8.672;2022-09-14T08:34:59;34.85;;;8.75;;
27257;SDS011;62045;49.986;8.672;2022-09-14T08:39:59;33.55;;;10.18;;
27257;SDS011;62045;49.986;8.672;2022-09-14T08:45:01;29.17;;;8.98;;
27257;SDS011;62045;49.986;8.672;2022-09-14T08:50:09;33.88;;;8.98;;
27257;SDS011;62045;49.986;8.672;2022-09-14T08:55:20;32.85;;;8.93;;
27257;SDS011;62045;49.986;8.672;2022-09-14T09:00:30;31.45;;;7.43;;
27257;SDS011;62045;49.986;8.672;2022-09-14T09:05:40;28.55;;;7.97;;
27257;SDS011;62045;49.986;8.672;2022-09-14T09:10:47;23.08;;;7.22;;
27257;SDS011;62045;49.986;8.672;2022-09-14T09:15:52;27.75;;;7.72;;
27257;SDS011;62045;49.986;8.672;2022-09-14T09:20:58;22.63;;;8.18;;
27257;SDS011;62045;49.986;8.672;2022-09-14T09:26:03;29.08;;;7.78;;
27257;SDS011;62045;49.986;8.672;2022-09-14T09:31:06;18.85;;;6.75;;
27257;SDS011;62045;49.986;8.672;2022-09-14T09:36:33;23.38;;;7.20;;
27257;SDS011;62045;49.986;8.672;2022-09-14T09:41:38;24.48;;;7.38;;
27257;SDS011;62045;49.986;8.672;2022-09-14T09:46:47;20.63;;;7.50;;
27257;SDS011;62045;49.986;8.672;2022-09-14T09:51:51;20.95;;;7.18;;
27257;SDS011;62045;49.986;8.672;2022-09-14T09:56:53;21.97;;;7.47;;
27257;SDS011;62045;49.986;8.672;2022-09-14T10:01:56;20.40;;;7.38;;
27257;SDS011;62045;49.986;8.672;2022-09-14T10:07:21;21.67;;;7.17;;
27257;SDS011;62045;49.986;8.672;2022-09-14T10:12:22;16.07;;;6.33;;
27257;SDS011;62045;49.986;8.672;2022-09-14T10:17:23;17.73;;;6.70;;
27257;SDS011;62045;49.986;8.672;2022-09-14T10:22:26;17.83;;;6.50;;
27257;SDS011;62045;49.986;8.672;2022-09-14T10:27:33;17.70;;;6.65;;
27257;SDS011;62045;49.986;8.672;2022-09-14T10:32:36;14.25;;;5.85;;
27257;SDS011;62045;49.986;8.672;2022-09-14T10:37:43;17.88;;;6.35;;
27257;SDS011;62045;49.986;8.672;2022-09-14T10:42:55;14.65;;;5.95;;
27257;SDS011;62045;49.986;8.672;2022-09-14T10:48:06;12.40;;;5.40;;
27257;SDS011;62045;49.986;8.672;2022-09-14T10:53:24;14.07;;;5.43;;
27257;SDS011;62045;49.986;8.672;2022-09-14T10:58:41;13.10;;;5.70;;
27257;SDS011;62045;49.986;8.672;2022-09-14T11:03:57;14.18;;;5.22;;
27257;SDS011;62045;49.986;8.672;2022-09-14T11:09:16;13.00;;;4.78;;
27257;SDS011;62045;49.986;8.672;2022-09-14T11:14:25;13.98;;;4.72;;
27257;SDS011;62045;49.986;8.672;2022-09-14T11:19:36;10.83;;;4.57;;
27257;SDS011;62045;49.986;8.672;2022-09-14T11:24:46;9.43;;;4.30;;
27257;SDS011;62045;49.986;8.672;2022-09-14T11:29:50;8.10;;;4.10;;
27257;SDS011;62045;49.986;8.672;2022-09-14T11:34:55;9.70;;;4.30;;
27257;SDS011;62045;49.986;8.672;2022-09-14T11:40:02;7.72;;;3.63;;
27257;SDS011;62045;49.986;8.672;2022-09-14T11:45:17;7.25;;;3.50;;
27257;SDS011;62045;49.986;8.672;2022-09-14T11:50:22;5.78;;;3.17;;
27257;SDS011;62045;49.986;8.672;2022-09-14T11:55:26;7.18;;;3.72;;
27257;SDS011;62045;49.986;8.672;2022-09-14T12:06:40;5.97;;;3.67;;
27257;SDS011;62045;49.986;8.672;2022-09-14T12:11:52;6.43;;;3.88;;
27257;SDS011;62045;49.986;8.672;2022-09-14T12:17:04;4.70;;;3.03;;
27257;SDS011;62045;49.986;8.672;2022-09-14T12:22:19;6.80;;;3.17;;
27257;SDS011;62045;49.986;8.672;2022-09-14T12:27:30;3.90;;;2.30;;
27257;SDS011;62045;49.986;8.672;2022-09-14T12:32:38;6.15;;;2.95;;
27257;SDS011;62045;49.986;8.672;2022-09-14T12:37:40;7.47;;;2.50;;
27257;SDS011;62045;49.986;8.672;2022-09-14T12:42:42;5.93;;;2.63;;
27257;SDS011;62045;49.986;8.672;2022-09-14T12:53:09;23.38;;;8.65;;
27257;SDS011;62045;49.986;8.672;2022-09-14T13:03:52;9.45;;;5.60;;
27257;SDS011;62045;49.986;8.672;2022-09-14T13:08:56;9.82;;;5.57;;
27257;SDS011;62045;49.986;8.672;2022-09-14T13:13:58;12.18;;;4.78;;
27257;SDS011;62045;49.986;8.672;2022-09-14T13:19:01;8.65;;;4.43;;
27257;SDS011;62045;49.986;8.672;2022-09-14T13:24:16;9.97;;;4.10;;
27257;SDS011;62045;49.986;8.672;2022-09-14T13:29:23;9.50;;;4.25;;
27257;SDS011;62045;49.986;8.672;2022-09-14T13:34:26;12.73;;;4.10;;
27257;SDS011;62045;49.986;8.672;2022-09-14T13:39:31;8.43;;;3.65;;
27257;SDS011;62045;49.986;8.672;2022-09-14T13:44:35;9.77;;;3.35;;
27257;SDS011;62045;49.986;8.672;2022-09-14T13:49:39;7.22;;;3.25;;
27257;SDS011;62045;49.986;8.672;2022-09-14T13:54:41;4.88;;;3.15;;
27257;SDS011;62045;49.986;8.672;2022-09-14T14:05:19;7.53;;;3.50;;
27257;SDS011;62045;49.986;8.672;2022-09-14T14:10:25;6.10;;;3.38;;
27257;SDS011;62045;49.986;8.672;2022-09-14T14:15:37;6.03;;;2.83;;
27257;SDS011;62045;49.986;8.672;2022-09-14T14:20:40;9.43;;;3.47;;
27257;SDS011;62045;49.986;8.672;2022-09-14T14:25:43;6.82;;;3.33;;
27257;SDS011;62045;49.986;8.672;2022-09-14T14:30:47;8.57;;;2.90;;
27257;SDS011;62045;49.986;8.672;2022-09-14T14:35:48;5.90;;;3.50;;
27257;SDS011;62045;49.986;8.672;2022-09-14T14:40:51;9.80;;;3.95;;
27257;SDS011;62045;49.986;8.672;2022-09-14T14:45:55;7.65;;;3.60;;
27257;SDS011;62045;49.986;8.672;2022-09-14T14:50:57;5.82;;;3.13;;
27257;SDS011;62045;49.986;8.672;2022-09-14T14:55:57;6.90;;;2.63;;
27257;SDS011;62045;49.986;8.672;2022-09-14T15:01:00;4.93;;;2.72;;
27257;SDS011;62045;49.986;8.672;2022-09-14T15:06:09;5.03;;;2.58;;
27257;SDS011;62045;49.986;8.672;2022-09-14T15:11:13;4.55;;;2.30;;
27257;SDS011;62045;49.986;8.672;2022-09-14T15:16:16;3.95;;;2.40;;
27257;SDS011;62045;49.986;8.672;2022-09-14T15:21:17;4.70;;;2.33;;
27257;SDS011;62045;49.986;8.672;2022-09-14T15:26:18;5.30;;;2.40;;
27257;SDS011;62045;49.986;8.672;2022-09-14T15:31:20;5.38;;;2.50;;
27257;SDS011;62045;49.986;8.672;2022-09-14T15:36:34;4.07;;;2.30;;
27257;SDS011;62045;49.986;8.672;2022-09-14T15:41:39;5.15;;;2.30;;
27257;SDS011;62045;49.986;8.672;2022-09-14T15:46:42;4.55;;;2.30;;
27257;SDS011;62045;49.986;8.672;2022-09-14T15:51:45;4.18;;;2.10;;
27257;SDS011;62045;49.986;8.672;2022-09-14T15:56:47;3.50;;;2.22;;
27257;SDS011;62045;49.986;8.672;2022-09-14T16:01:50;4.35;;;2.30;;
27257;SDS011;62045;49.986;8.672;2022-09-14T16:06:51;3.92;;;2.20;;
27257;SDS011;62045;49.986;8.672;2022-09-14T16:11:52;4.28;;;2.03;;
27257;SDS011;62045;49.986;8.672;2022-09-14T16:16:54;3.22;;;1.95;;
27257;SDS011;62045;49.986;8.672;2022-09-14T16:21:55;3.95;;;2.33;;
27257;SDS011;62045;49.986;8.672;2022-09-14T16:26:56;3.97;;;2.38;;
27257;SDS011;62045;49.986;8.672;2022-09-14T16:31:58;3.78;;;2.13;;
27257;SDS011;62045;49.986;8.672;2022-09-14T16:36:59;3.92;;;2.28;;
27257;SDS011;62045;49.986;8.672;2022-09-14T16:42:00;3.17;;;2.00;;
27257;SDS011;62045;49.986;8.672;2022-09-14T16:47:03;3.13;;;1.92;;
27257;SDS011;62045;49.986;8.672;2022-09-14T16:52:04;5.18;;;2.00;;
27257;SDS011;62045;49.986;8.672;2022-09-14T16:57:05;3.97;;;2.20;;
27257;SDS011;62045;49.986;8.672;2022-09-14T17:02:08;4.32;;;2.10;;
27257;SDS011;62045;49.986;8.672;2022-09-14T17:07:09;4.13;;;2.15;;
27257;SDS011;62045;49.986;8.672;2022-09-14T17:12:10;4.75;;;2.30;;
27257;SDS011;62045;49.986;8.672;2022-09-14T17:17:12;3.05;;;1.77;;
27257;SDS011;62045;49.986;8.672;2022-09-14T17:22:13;3.28;;;2.10;;
27257;SDS011;62045;49.986;8.672;2022-09-14T17:27:14;3.45;;;1.95;;
27257;SDS011;62045;49.986;8.672;2022-09-14T17:32:16;4.03;;;2.03;;
27257;SDS011;62045;49.986;8.672;2022-09-14T17:37:20;3.88;;;2.10;;
27257;SDS011;62045;49.986;8.672;2022-09-14T17:42:21;5.82;;;1.90;;
27257;SDS011;62045;49.986;8.672;2022-09-14T17:47:23;3.97;;;1.83;;
27257;SDS011;62045;49.986;8.672;2022-09-14T17:52:24;3.85;;;2.03;;
27257;SDS011;62045;49.986;8.672;2022-09-14T17:57:25;4.82;;;2.00;;
27257;SDS011;62045;49.986;8.672;2022-09-14T18:02:27;3.95;;;1.90;;
27257;SDS011;62045;49.986;8.672;2022-09-14T18:07:28;3.28;;;1.83;;
27257;SDS011;62045;49.986;8.672;2022-09-14T18:12:31;4.30;;;1.90;;
27257;SDS011;62045;49.986;8.672;2022-09-14T18:17:34;2.90;;;1.50;;
27257;SDS011;62045;49.986;8.672;2022-09-14T18:22:35;3.97;;;1.90;;
27257;SDS011;62045;49.986;8.672;2022-09-14T18:27:36;3.95;;;2.00;;
27257;SDS011;62045;49.986;8.672;2022-09-14T18:32:38;3.60;;;1.85;;
27257;SDS011;62045;49.986;8.672;2022-09-14T18:37:39;3.05;;;1.67;;
27257;SDS011;62045;49.986;8.672;2022-09-14T18:42:40;4.93;;;1.58;;
27257;SDS011;62045;49.986;8.672;2022-09-14T18:47:42;3.38;;;1.67;;
27257;SDS011;62045;49.986;8.672;2022-09-14T18:52:44;3.20;;;1.70;;
27257;SDS011;62045;49.986;8.672;2022-09-14T18:57:45;3.75;;;1.83;;
27257;SDS011;62045;49.986;8.672;2022-09-14T19:02:51;4.22;;;1.80;;
27257;SDS011;62045;49.986;8.672;2022-09-14T19:07:52;4.57;;;1.77;;
27257;SDS011;62045;49.986;8.672;2022-09-14T19:12:53;3.97;;;1.60;;
27257;SDS011;62045;49.986;8.672;2022-09-14T19:17:55;3.63;;;1.80;;
27257;SDS011;62045;49.986;8.672;2022-09-14T19:22:57;3.37;;;1.60;;
27257;SDS011;62045;49.986;8.672;2022-09-14T19:27:57;3.25;;;1.67;;
27257;SDS011;62045;49.986;8.672;2022-09-14T19:32:59;3.40;;;1.80;;
27257;SDS011;62045;49.986;8.672;2022-09-14T19:38:00;4.18;;;1.60;;
27257;SDS011;62045;49.986;8.672;2022-09-14T19:43:01;3.15;;;1.33;;
27257;SDS011;62045;49.986;8.672;2022-09-14T19:48:03;2.85;;;1.60;;
27257;SDS011;62045;49.986;8.672;2022-09-14T19:53:04;2.70;;;1.50;;
27257;SDS011;62045;49.986;8.672;2022-09-14T19:58:05;2.80;;;1.50;;
27257;SDS011;62045;49.986;8.672;2022-09-14T20:03:07;2.47;;;1.33;;
27257;SDS011;62045;49.986;8.672;2022-09-14T20:08:08;3.20;;;1.50;;
27257;SDS011;62045;49.986;8.672;2022-09-14T20:13:09;3.50;;;1.60;;
27257;SDS011;62045;49.986;8.672;2022-09-14T20:18:11;3.22;;;1.40;;
27257;SDS011;62045;49.986;8.672;2022-09-14T20:23:12;4.03;;;1.30;;
27257;SDS011;62045;49.986;8.672;2022-09-14T20:28:13;2.88;;;1.45;;
27257;SDS011;62045;49.986;8.672;2022-09-14T20:33:16;2.40;;;1.30;;
27257;SDS011;62045;49.986;8.672;2022-09-14T20:38:17;4.15;;;1.20;;
27257;SDS011;62045;49.986;8.672;2022-09-14T20:43:17;2.67;;;1.25;;
27257;SDS011;62045;49.986;8.672;2022-09-14T20:48:20;2.17;;;1.27;;
27257;SDS011;62045;49.986;8.672;2022-09-14T20:53:20;2.92;;;1.33;;
27257;SDS011;62045;49.986;8.672;2022-09-14T20:58:22;2.35;;;1.10;;
27257;SDS011;62045;49.986;8.672;2022-09-14T21:03:24;2.67;;;1.38;;
27257;SDS011;62045;49.986;8.672;2022-09-14T21:08:25;2.85;;;1.40;;
27257;SDS011;62045;49.986;8.672;2022-09-14T21:13:26;2.88;;;1.33;;
27257;SDS011;62045;49.986;8.672;2022-09-14T21:18:28;3.08;;;1.30;;
27257;SDS011;62045;49.986;8.672;2022-09-14T21:23:29;4.07;;;1.30;;
27257;SDS011;62045;49.986;8.672;2022-09-14T21:28:30;2.42;;;1.20;;
27257;SDS011;62045;49.986;8.672;2022-09-14T21:33:33;3.90;;;1.17;;
27257;SDS011;62045;49.986;8.672;2022-09-14T21:38:35;4.03;;;1.23;;
27257;SDS011;62045;49.986;8.672;2022-09-14T21:43:37;3.00;;;1.35;;
27257;SDS011;62045;49.986;8.672;2022-09-14T21:48:40;2.67;;;1.33;;
27257;SDS011;62045;49.986;8.672;2022-09-14T21:53:42;2.10;;;1.17;;
27257;SDS011;62045;49.986;8.672;2022-09-14T21:58:47;2.80;;;1.23;;
27257;SDS011;62045;49.986;8.672;2022-09-14T22:03:50;2.20;;;0.93;;
27257;SDS011;62045;49.986;8.672;2022-09-14T22:08:53;2.33;;;1.00;;
27257;SDS011;62045;49.986;8.672;2022-09-14T22:13:57;4.72;;;1.10;;
27257;SDS011;62045;49.986;8.672;2022-09-14T22:19:01;2.80;;;1.00;;
27257;SDS011;62045;49.986;8.672;2022-09-14T22:24:05;2.85;;;1.08;;
27257;SDS011;62045;49.986;8.672;2022-09-14T22:29:07;2.15;;;0.90;;
27257;SDS011;62045;49.986;8.672;2022-09-14T22:34:10;3.20;;;1.02;;
27257;SDS011;62045;49.986;8.672;2022-09-14T22:39:11;2.00;;;1.00;;
27257;SDS011;62045;49.986;8.672;2022-09-14T22:44:12;5.20;;;2.45;;
27257;SDS011;62045;49.986;8.672;2022-09-14T22:49:15;1.92;;;1.05;;
27257;SDS011;62045;49.986;8.672;2022-09-14T22:54:15;2.58;;;1.15;;
27257;SDS011;62045;49.986;8.672;2022-09-14T22:59:16;2.42;;;1.20;;
27257;SDS011;62045;49.986;8.672;2022-09-14T23:04:18;2.90;;;1.17;;
27257;SDS011;62045;49.986;8.672;2022-09-14T23:09:20;2.42;;;1.02;;
27257;SDS011;62045;49.986;8.672;2022-09-14T23:14:21;1.60;;;0.90;;
27257;SDS011;62045;49.986;8.672;2022-09-14T23:19:23;2.47;;;1.35;;
27257;SDS011;62045;49.986;8.672;2022-09-14T23:24:24;1.75;;;1.00;;
27257;SDS011;62045;49.986;8.672;2022-09-14T23:29:25;3.17;;;1.33;;
27257;SDS011;62045;49.986;8.672;2022-09-14T23:34:27;2.05;;;0.88;;
27257;SDS011;62045;49.986;8.672;2022-09-14T23:39:28;2.50;;;1.10;;
27257;SDS011;62045;49.986;8.672;2022-09-14T23:44:29;1.73;;;0.93;;
27257;SDS011;62045;49.986;8.672;2022-09-14T23:49:31;2.58;;;1.10;;
27257;SDS011;62045;49.986;8.672;2022-09-14T23:54:32;2.28;;;1.08;;
27257;SDS011;62045;49.986;8.672;2022-09-14T23:59:33;2.17;;;0.95;;
